BAW919 EDDL-EGLL
Flight info
| Callsign | BAW919 |
|---|---|
| Flight time | N/A |
| Altitude | 18000 |
| Route | NETEX4Z/05R NETEX Z282 DIBIR L179 ROMIN/N0440F320 L179 SASKI L608 LOGAN LOGAN2H |
| Aircraft | A320/M-SDE3FGIJ1KRWXY/SB1 |
Departure
| Time | 2026-05-06 08:19 |
|---|---|
| Airport | Düsseldorf Airport (EDDL) |
Arrival
| Time | N/A |
|---|---|
| Airport | London Heathrow Airport (EGLL) |
| Time | Latitude | Longitude | Altitude | Speed | Heading |
|---|---|---|---|---|---|
| 2026-05-06 07:46 | 51.27610 | 6.76201 | 131 ft | 0 kts | 44° |
| 2026-05-06 08:09 | 51.27609 | 6.76199 | 130 ft | 2 kts | 44° |
| 2026-05-06 08:09 | 51.27591 | 6.76171 | 126 ft | 4 kts | 45° |
| 2026-05-06 08:10 | 51.27576 | 6.76146 | 126 ft | 3 kts | 45° |
| 2026-05-06 08:10 | 51.27555 | 6.76122 | 129 ft | 4 kts | 18° |
| 2026-05-06 08:10 | 51.27530 | 6.76119 | 128 ft | 4 kts | 339° |
| 2026-05-06 08:10 | 51.27524 | 6.76123 | 128 ft | 0 kts | 333° |
| 2026-05-06 08:15 | 51.27533 | 6.76116 | 128 ft | 4 kts | 333° |
| 2026-05-06 08:15 | 51.27581 | 6.76077 | 129 ft | 11 kts | 333° |
| 2026-05-06 08:15 | 51.27662 | 6.76040 | 128 ft | 14 kts | 0° |
| 2026-05-06 08:15 | 51.27765 | 6.76042 | 130 ft | 16 kts | 1° |
| 2026-05-06 08:16 | 51.27835 | 6.76019 | 130 ft | 9 kts | 312° |
| 2026-05-06 08:16 | 51.27845 | 6.75899 | 130 ft | 13 kts | 270° |
| 2026-05-06 08:16 | 51.27861 | 6.75742 | 126 ft | 16 kts | 275° |
| 2026-05-06 08:16 | 51.27833 | 6.75586 | 128 ft | 13 kts | 232° |
| 2026-05-06 08:17 | 51.27777 | 6.75469 | 126 ft | 13 kts | 242° |
| 2026-05-06 08:17 | 51.27807 | 6.75377 | 124 ft | 10 kts | 332° |
| 2026-05-06 08:17 | 51.27864 | 6.75331 | 124 ft | 11 kts | 333° |
| 2026-05-06 08:17 | 51.27945 | 6.75269 | 119 ft | 15 kts | 343° |
| 2026-05-06 08:18 | 51.28024 | 6.75334 | 121 ft | 10 kts | 51° |
| 2026-05-06 08:18 | 51.28102 | 6.75499 | 125 ft | 42 kts | 52° |
| 2026-05-06 08:18 | 51.28420 | 6.76156 | 127 ft | 105 kts | 53° |
| 2026-05-06 08:18 | 51.28962 | 6.77300 | 133 ft | 151 kts | 53° |
| 2026-05-06 08:19 | 51.29611 | 6.78671 | 566 ft | 158 kts | 50° |
| 2026-05-06 08:19 | 51.30286 | 6.80104 | 1183 ft | 164 kts | 51° |
| 2026-05-06 08:19 | 51.31000 | 6.81618 | 1543 ft | 182 kts | 51° |
| 2026-05-06 08:19 | 51.31810 | 6.83329 | 1844 ft | 203 kts | 51° |
| 2026-05-06 08:20 | 51.32712 | 6.85229 | 2130 ft | 228 kts | 52° |
| 2026-05-06 08:20 | 51.33720 | 6.87371 | 2577 ft | 251 kts | 53° |
| 2026-05-06 08:20 | 51.34848 | 6.89574 | 3338 ft | 260 kts | 39° |
| 2026-05-06 08:20 | 51.36470 | 6.90842 | 4194 ft | 265 kts | 9° |